Eureka Springs, Arkansas
Current Conditions -  °F | °C
As of 8:57 AM on Tuesday 21 Oct 2014 (Local Time) from KROG Reporting Station
Overcast Overcast  
Wind Chill: 54°   Ceiling: 200
Heat Index: 54°   Visibility: 0mi
Dew Point: 53°   Wind: 3mph
Humidity: 97%   Direction: 120°ESE
Pressure: 30.16"   Gusts: NA
Location:  36.4°N, 93.74°W
Report Text: KROG 211357Z 12003KT M1/4SM OVC002 12/12 A3016 RMK AO2 SLP208 P0001 T01220117
Loading
Personal Weather Stations






























Interactive Weather Map
Tropical Storm Tracking
New forecast layout! Learn more

10-Day Weather Forecast

Advertisements
Track Severe Weather on mobile